createdAt,value
2023-05-23T00:00:15.665Z,100.00
2023-05-23T00:02:47.153Z,100.00
2023-05-23T00:05:18.088Z,100.00
2023-05-23T00:07:47.879Z,100.00
2023-05-23T00:10:16.798Z,100.00
2023-05-23T00:12:48.369Z,100.00
2023-05-23T00:15:17.713Z,100.00
2023-05-23T00:17:47.093Z,100.00
2023-05-23T00:20:17.093Z,100.00
2023-05-23T00:22:48.522Z,100.00
2023-05-23T00:25:22.236Z,100.00
2023-05-23T00:27:51.231Z,100.00
2023-05-23T00:30:20.476Z,100.00
2023-05-23T00:32:49.496Z,100.00
2023-05-23T00:35:18.428Z,100.00
2023-05-23T00:37:47.148Z,100.00
2023-05-23T00:40:16.120Z,100.00
2023-05-23T00:42:46.624Z,100.00
2023-05-23T00:45:16.014Z,100.00
2023-05-23T00:47:45.470Z,100.00
2023-05-23T00:50:15.902Z,100.00
2023-05-23T00:52:45.939Z,100.00
2023-05-23T00:55:14.879Z,100.00
2023-05-23T00:57:45.943Z,100.00
2023-05-23T01:00:15.501Z,100.00
2023-05-23T01:02:47.375Z,100.00
2023-05-23T01:05:17.944Z,100.00
2023-05-23T01:07:47.735Z,100.00
2023-05-23T01:10:17.150Z,100.00
2023-05-23T01:13:00.087Z,100.00
2023-05-23T01:15:32.598Z,100.00
2023-05-23T01:18:04.771Z,100.00
2023-05-23T01:20:37.464Z,100.00
2023-05-23T01:23:38.182Z,100.00
2023-05-23T01:26:19.990Z,100.00
2023-05-23T01:28:53.350Z,100.00
2023-05-23T01:31:23.771Z,100.00
2023-05-23T01:33:53.568Z,100.00
2023-05-23T01:36:22.629Z,100.00
2023-05-23T01:38:54.082Z,100.00
2023-05-23T01:41:23.129Z,100.00
2023-05-23T01:43:53.128Z,100.00
2023-05-23T01:46:22.112Z,100.00
2023-05-23T01:48:51.367Z,100.00
2023-05-23T01:51:20.586Z,100.00
2023-05-23T01:53:50.640Z,100.00
2023-05-23T01:56:20.006Z,100.00
2023-05-23T01:58:48.901Z,100.00
2023-05-23T02:01:19.599Z,100.00
2023-05-23T02:03:48.742Z,100.00
2023-05-23T02:06:17.731Z,100.00
2023-05-23T02:08:48.980Z,100.00
2023-05-23T02:11:17.977Z,100.00
2023-05-23T02:13:46.446Z,100.00
2023-05-23T02:16:15.920Z,100.00
2023-05-23T02:18:47.304Z,100.00
2023-05-23T02:21:16.354Z,100.00
2023-05-23T02:23:45.307Z,100.00
2023-05-23T02:26:14.304Z,100.00
2023-05-23T02:28:45.519Z,100.00
2023-05-23T02:31:17.514Z,100.00
2023-05-23T02:33:47.999Z,100.00
2023-05-23T02:36:16.824Z,100.00
2023-05-23T02:38:46.853Z,100.00
2023-05-23T02:41:15.859Z,100.00
2023-05-23T02:43:47.284Z,100.00
2023-05-23T02:46:18.009Z,100.00
2023-05-23T02:48:48.567Z,100.00
2023-05-23T02:51:17.330Z,100.00
2023-05-23T02:53:46.350Z,100.00
2023-05-23T02:56:15.892Z,100.00
2023-05-23T02:58:44.821Z,100.00
2023-05-23T03:01:13.856Z,100.00
2023-05-23T03:03:42.957Z,100.00
2023-05-23T03:06:14.900Z,100.00
2023-05-23T03:08:44.210Z,100.00
2023-05-23T03:11:13.165Z,100.00
2023-05-23T03:13:41.746Z,100.00
2023-05-23T03:16:12.048Z,100.00
2023-05-23T03:18:42.275Z,100.00
2023-05-23T03:21:12.764Z,100.00
2023-05-23T03:23:41.436Z,100.00
2023-05-23T03:26:10.645Z,100.00
2023-05-23T03:28:39.347Z,100.00
2023-05-23T03:31:08.316Z,100.00
2023-05-23T03:33:39.700Z,100.00
2023-05-23T03:36:09.751Z,100.00
2023-05-23T03:38:40.234Z,100.00
2023-05-23T03:41:09.452Z,100.00
2023-05-23T03:43:38.044Z,100.00
2023-05-23T03:46:07.147Z,100.00
2023-05-23T03:48:36.198Z,100.00
2023-05-23T03:51:05.537Z,100.00
2023-05-23T03:53:36.429Z,100.00
2023-05-23T03:56:08.216Z,100.00
2023-05-23T03:58:36.818Z,100.00
2023-05-23T04:01:11.385Z,100.00
2023-05-23T04:03:40.503Z,100.00
2023-05-23T04:06:11.589Z,100.00
2023-05-23T04:08:43.777Z,100.00
2023-05-23T04:11:15.907Z,100.00
2023-05-23T04:13:47.328Z,100.00
2023-05-23T04:16:16.843Z,100.00
2023-05-23T04:18:47.665Z,100.00
2023-05-23T04:21:16.981Z,100.00
2023-05-23T04:23:54.633Z,100.00
2023-05-23T04:26:25.411Z,100.00
2023-05-23T04:28:55.428Z,100.00
2023-05-23T04:31:24.563Z,100.00
2023-05-23T04:33:53.982Z,100.00
2023-05-23T04:36:23.728Z,100.00
2023-05-23T04:38:56.065Z,100.00
2023-05-23T04:41:26.583Z,100.00
2023-05-23T04:44:18.423Z,100.00
2023-05-23T04:47:10.235Z,100.00
2023-05-23T04:50:00.558Z,100.00
2023-05-23T04:52:30.936Z,100.00
2023-05-23T04:55:00.665Z,100.00
2023-05-23T04:57:31.671Z,100.00
2023-05-23T05:00:01.498Z,100.00
2023-05-23T05:02:35.409Z,100.00
2023-05-23T05:05:05.496Z,100.00
2023-05-23T05:07:36.597Z,100.00
2023-05-23T05:10:07.054Z,100.00
2023-05-23T05:12:38.410Z,100.00
2023-05-23T05:15:08.726Z,100.00
2023-05-23T05:17:39.404Z,100.00
2023-05-23T05:20:12.648Z,100.00
2023-05-23T05:22:41.599Z,100.00
2023-05-23T05:25:13.229Z,100.00
2023-05-23T05:27:44.012Z,100.00
2023-05-23T05:30:15.820Z,100.00
2023-05-23T05:32:52.918Z,100.00
2023-05-23T05:35:21.960Z,100.00
2023-05-23T05:37:50.581Z,100.00
2023-05-23T05:40:20.654Z,100.00
2023-05-23T05:42:51.048Z,100.00
2023-05-23T05:45:20.740Z,100.00
2023-05-23T05:47:52.143Z,100.00
2023-05-23T05:50:23.043Z,100.00
2023-05-23T05:52:51.658Z,100.00
2023-05-23T05:55:20.623Z,100.00
2023-05-23T05:57:55.497Z,100.00
2023-05-23T06:00:25.914Z,100.00
2023-05-23T06:02:58.495Z,100.00
2023-05-23T06:05:39.562Z,100.00
2023-05-23T06:08:08.783Z,100.00
2023-05-23T06:10:39.318Z,100.00
2023-05-23T06:13:09.985Z,100.00
2023-05-23T06:15:40.671Z,100.00
2023-05-23T06:18:10.124Z,100.00
2023-05-23T06:20:39.347Z,100.00
2023-05-23T06:23:12.940Z,100.00
2023-05-23T06:25:42.076Z,100.00
2023-05-23T06:28:12.544Z,100.00
2023-05-23T06:30:42.828Z,100.00
2023-05-23T06:33:12.457Z,100.00
2023-05-23T06:35:41.515Z,97.89
2023-05-23T06:38:10.685Z,99.40
2023-05-23T06:40:39.573Z,96.72
2023-05-23T06:43:08.969Z,98.39
2023-05-23T06:45:48.853Z,92.74
2023-05-23T06:48:18.038Z,92.72
2023-05-23T06:50:47.987Z,93.81
2023-05-23T06:53:19.372Z,95.56
2023-05-23T06:55:50.348Z,98.67
2023-05-23T06:58:25.307Z,96.44
2023-05-23T07:00:57.003Z,98.37
2023-05-23T07:03:32.904Z,94.87
2023-05-23T07:06:06.673Z,92.57
2023-05-23T07:08:36.181Z,93.89
2023-05-23T07:11:07.342Z,93.73
2023-05-23T07:13:41.785Z,92.42
2023-05-23T07:16:17.371Z,92.51
2023-05-23T07:19:05.676Z,93.63
2023-05-23T07:21:38.630Z,91.78
2023-05-23T07:24:08.935Z,89.64
2023-05-23T07:26:38.036Z,87.34
2023-05-23T07:29:08.164Z,84.22
2023-05-23T07:31:38.412Z,87.79
2023-05-23T07:34:07.670Z,84.67
2023-05-23T07:36:59.673Z,83.11
2023-05-23T07:39:33.280Z,80.32
2023-05-23T07:42:03.323Z,76.94
2023-05-23T07:44:32.378Z,75.33
2023-05-23T07:47:03.080Z,74.68
2023-05-23T07:49:32.027Z,78.99
2023-05-23T07:52:01.189Z,75.74
2023-05-23T07:54:30.506Z,75.91
2023-05-23T07:57:01.658Z,74.08
2023-05-23T07:59:31.385Z,72.59
2023-05-23T08:02:00.428Z,69.49
2023-05-23T08:04:32.640Z,67.44
2023-05-23T08:07:05.657Z,67.48
2023-05-23T08:09:49.237Z,73.64
2023-05-23T08:12:21.200Z,74.31
2023-05-23T08:14:54.328Z,72.88
2023-05-23T08:17:30.863Z,68.42
2023-05-23T08:20:02.388Z,63.39
2023-05-23T08:22:32.700Z,65.11
2023-05-23T08:25:03.110Z,66.58
2023-05-23T08:27:34.066Z,63.74
2023-05-23T08:30:10.012Z,66.50
2023-05-23T08:32:40.104Z,64.14
2023-05-23T08:35:11.020Z,65.96
2023-05-23T08:37:43.200Z,59.83
2023-05-23T08:40:16.351Z,66.28
2023-05-23T08:42:49.857Z,61.39
2023-05-23T08:45:20.029Z,64.62
2023-05-23T08:47:49.702Z,61.70
2023-05-23T08:50:23.299Z,64.02
2023-05-23T08:52:56.989Z,66.75
2023-05-23T08:55:27.979Z,65.78
2023-05-23T08:58:00.439Z,62.82
2023-05-23T09:00:39.399Z,63.22
2023-05-23T09:03:08.687Z,61.65
2023-05-23T09:05:58.391Z,59.19
2023-05-23T09:08:28.218Z,57.41
2023-05-23T09:11:02.953Z,51.91
2023-05-23T09:13:35.061Z,48.60
2023-05-23T09:16:09.043Z,51.94
2023-05-23T09:18:46.348Z,48.18
2023-05-23T09:21:19.569Z,53.90
2023-05-23T09:23:58.796Z,54.11
2023-05-23T09:26:29.917Z,52.46
2023-05-23T09:29:00.404Z,46.91
2023-05-23T09:31:30.046Z,44.27
2023-05-23T09:34:00.290Z,47.61
2023-05-23T09:36:33.836Z,46.21
2023-05-23T09:39:05.835Z,44.88
2023-05-23T09:41:36.036Z,43.53
2023-05-23T09:44:10.565Z,40.92
2023-05-23T09:46:39.615Z,45.57
2023-05-23T09:49:19.350Z,46.45
2023-05-23T09:52:00.890Z,49.04
2023-05-23T09:54:30.069Z,49.53
2023-05-23T09:57:01.808Z,46.19
2023-05-23T09:59:33.433Z,42.18
2023-05-23T10:02:04.448Z,43.10
2023-05-23T10:04:33.360Z,46.19
2023-05-23T10:07:07.065Z,46.66
2023-05-23T10:09:39.785Z,41.12
2023-05-23T10:12:44.653Z,41.11
2023-05-23T10:15:17.110Z,41.70
2023-05-23T10:17:59.645Z,42.18
2023-05-23T10:20:33.222Z,40.01
2023-05-23T10:23:05.554Z,35.58
2023-05-23T10:25:35.951Z,34.21
2023-05-23T10:28:06.083Z,35.96
2023-05-23T10:30:36.158Z,33.64
2023-05-23T10:33:06.649Z,28.89
2023-05-23T10:35:49.777Z,26.48
2023-05-23T10:38:30.156Z,26.02
2023-05-23T10:41:07.088Z,25.78
2023-05-23T10:43:57.223Z,24.76
2023-05-23T10:46:53.115Z,23.72
2023-05-23T10:49:22.805Z,25.67
2023-05-23T10:51:52.697Z,25.59
2023-05-23T10:54:23.438Z,23.49
2023-05-23T10:57:04.542Z,22.52
2023-05-23T10:59:33.667Z,24.04
2023-05-23T11:02:03.160Z,24.77
2023-05-23T11:04:31.851Z,27.06
2023-05-23T11:07:01.052Z,30.79
2023-05-23T11:09:31.677Z,30.39
2023-05-23T11:12:05.484Z,30.27
2023-05-23T11:14:55.872Z,32.31
2023-05-23T11:17:50.652Z,30.67
2023-05-23T11:20:23.570Z,30.80
2023-05-23T11:22:56.498Z,29.21
2023-05-23T11:25:41.625Z,32.89
2023-05-23T11:28:11.275Z,29.84
2023-05-23T11:30:41.163Z,28.09
2023-05-23T11:33:13.645Z,25.57
2023-05-23T11:35:43.986Z,26.43
2023-05-23T11:38:13.380Z,26.93
2023-05-23T11:40:45.107Z,23.10
2023-05-23T11:43:16.743Z,21.40
2023-05-23T11:45:47.142Z,20.18
2023-05-23T11:48:18.139Z,22.40
2023-05-23T11:50:49.253Z,23.39
2023-05-23T11:53:19.306Z,25.07
2023-05-23T11:55:53.850Z,21.92
2023-05-23T11:58:23.804Z,24.30
2023-05-23T12:00:55.212Z,21.09
2023-05-23T12:03:24.862Z,21.41
2023-05-23T12:05:53.823Z,22.29
2023-05-23T12:08:23.346Z,21.09
2023-05-23T12:10:54.356Z,20.73
2023-05-23T12:13:26.443Z,19.52
2023-05-23T12:15:56.881Z,18.15
2023-05-23T12:18:30.571Z,18.96
2023-05-23T12:21:03.281Z,18.57
2023-05-23T12:23:34.700Z,24.47
2023-05-23T12:26:08.375Z,23.30
2023-05-23T12:28:38.200Z,23.68
2023-05-23T12:31:12.399Z,26.57
2023-05-23T12:33:44.061Z,26.64
2023-05-23T12:36:13.487Z,27.20
2023-05-23T12:38:45.507Z,25.40
2023-05-23T12:41:19.910Z,24.60
2023-05-23T12:43:53.015Z,24.21
2023-05-23T12:46:23.036Z,24.93
2023-05-23T12:48:52.975Z,28.57
2023-05-23T12:51:21.924Z,29.90
2023-05-23T12:53:51.144Z,32.51
2023-05-23T12:56:22.541Z,32.99
2023-05-23T12:58:52.345Z,33.93
2023-05-23T13:01:22.101Z,36.63
2023-05-23T13:03:51.145Z,35.08
2023-05-23T13:06:20.369Z,32.91
2023-05-23T13:08:50.940Z,29.06
2023-05-23T13:11:22.691Z,25.84
2023-05-23T13:13:51.768Z,26.06
2023-05-23T13:16:20.962Z,29.28
2023-05-23T13:18:50.032Z,27.83
2023-05-23T13:21:19.059Z,28.03
2023-05-23T13:23:48.113Z,29.91
2023-05-23T13:26:17.418Z,28.59
2023-05-23T13:28:47.668Z,27.82
2023-05-23T13:31:16.826Z,26.00
2023-05-23T13:33:45.981Z,26.17
2023-05-23T13:36:15.066Z,27.66
2023-05-23T13:38:44.224Z,27.28
2023-05-23T13:41:13.295Z,26.78
2023-05-23T13:43:41.938Z,26.14
2023-05-23T13:46:13.383Z,26.25
2023-05-23T13:48:42.431Z,27.00
2023-05-23T13:51:11.547Z,26.61
2023-05-23T13:53:40.713Z,25.77
2023-05-23T13:56:10.272Z,25.55
2023-05-23T13:58:38.992Z,25.97
2023-05-23T14:01:08.059Z,25.50
2023-05-23T14:03:38.810Z,25.44
2023-05-23T14:06:08.202Z,26.68
2023-05-23T14:08:37.272Z,26.46
2023-05-23T14:11:06.427Z,25.22
2023-05-23T14:13:35.009Z,24.55
2023-05-23T14:16:04.502Z,24.91
2023-05-23T14:18:34.181Z,25.71
2023-05-23T14:21:04.446Z,24.82
2023-05-23T14:23:33.478Z,23.28
2023-05-23T14:26:02.552Z,23.50
2023-05-23T14:28:31.728Z,22.88
2023-05-23T14:31:00.800Z,23.23
2023-05-23T14:33:30.159Z,24.10
2023-05-23T14:35:59.801Z,24.27
2023-05-23T14:38:30.832Z,25.01
2023-05-23T14:41:00.161Z,24.79
2023-05-23T14:43:28.962Z,25.15
2023-05-23T14:45:58.210Z,25.65
2023-05-23T14:48:27.377Z,25.83
2023-05-23T14:50:56.564Z,24.48
2023-05-23T14:53:25.867Z,24.28
2023-05-23T14:55:56.970Z,22.81
2023-05-23T14:58:26.301Z,22.68
2023-05-23T15:00:55.349Z,23.78
2023-05-23T15:03:24.370Z,23.50
2023-05-23T15:05:53.377Z,22.95
2023-05-23T15:08:22.444Z,26.14
2023-05-23T15:10:51.598Z,28.14
2023-05-23T15:13:22.114Z,27.97
2023-05-23T15:15:51.227Z,26.28
2023-05-23T15:18:31.723Z,25.20
2023-05-23T15:21:08.498Z,27.28
2023-05-23T15:23:37.634Z,25.60
2023-05-23T15:26:06.852Z,24.28
2023-05-23T15:28:36.969Z,23.58
2023-05-23T15:31:06.347Z,23.25
2023-05-23T15:33:35.159Z,22.68
2023-05-23T15:36:04.646Z,21.75
2023-05-23T15:38:33.452Z,21.12
2023-05-23T15:41:03.576Z,20.96
2023-05-23T15:43:32.880Z,22.84
2023-05-23T15:46:06.143Z,23.76
2023-05-23T15:48:35.282Z,22.85
2023-05-23T15:51:04.368Z,23.08
2023-05-23T15:53:40.081Z,26.42
2023-05-23T15:56:09.565Z,26.79
2023-05-23T15:58:38.269Z,25.52
2023-05-23T16:01:09.935Z,25.30
2023-05-23T16:03:39.186Z,24.00
2023-05-23T16:06:08.495Z,23.47
2023-05-23T16:08:37.460Z,26.21
2023-05-23T16:11:06.733Z,30.59
2023-05-23T16:13:35.939Z,30.32
2023-05-23T16:16:05.576Z,30.23
2023-05-23T16:18:36.277Z,30.41
2023-05-23T16:21:05.901Z,30.81
2023-05-23T16:23:35.102Z,33.17
2023-05-23T16:26:04.317Z,32.62
2023-05-23T16:28:33.062Z,32.99
2023-05-23T16:31:02.064Z,31.39
2023-05-23T16:33:31.337Z,31.56
2023-05-23T16:36:01.839Z,31.46
2023-05-23T16:38:31.041Z,31.96
2023-05-23T16:41:00.268Z,32.41
2023-05-23T16:43:29.004Z,33.20
2023-05-23T16:45:58.092Z,35.02
2023-05-23T16:48:27.513Z,35.95
2023-05-23T16:50:56.745Z,37.26
2023-05-23T16:53:27.500Z,38.34
2023-05-23T16:55:56.233Z,39.74
2023-05-23T16:58:25.449Z,40.02
2023-05-23T17:00:54.664Z,40.96
2023-05-23T17:03:24.031Z,40.65
2023-05-23T17:05:53.431Z,42.32
2023-05-23T17:08:22.447Z,44.85
2023-05-23T17:10:52.605Z,44.62
2023-05-23T17:13:21.686Z,46.47
2023-05-23T17:15:50.676Z,45.79
2023-05-23T17:18:19.786Z,45.96
2023-05-23T17:20:48.860Z,46.64
2023-05-23T17:23:19.268Z,47.36
2023-05-23T17:25:47.831Z,47.54
2023-05-23T17:28:18.368Z,48.75
2023-05-23T17:30:47.696Z,52.65
2023-05-23T17:33:17.476Z,51.87
2023-05-23T17:35:46.915Z,52.57
2023-05-23T17:38:16.077Z,53.58
2023-05-23T17:40:44.918Z,52.91
2023-05-23T17:43:14.589Z,54.84
2023-05-23T17:45:45.269Z,55.23
2023-05-23T17:48:16.056Z,55.47
2023-05-23T17:50:46.044Z,54.95
2023-05-23T17:53:16.100Z,55.36
2023-05-23T17:55:45.223Z,54.95
2023-05-23T17:58:14.405Z,57.09
2023-05-23T18:00:45.042Z,57.86
2023-05-23T18:03:14.403Z,59.39
2023-05-23T18:05:43.561Z,62.04
2023-05-23T18:08:12.566Z,65.30
2023-05-23T18:10:41.423Z,64.36
2023-05-23T18:13:10.928Z,65.51
2023-05-23T18:15:40.259Z,65.03
2023-05-23T18:18:10.744Z,64.76
2023-05-23T18:20:40.197Z,65.68
2023-05-23T18:23:09.715Z,63.87
2023-05-23T18:25:38.482Z,65.58
2023-05-23T18:28:07.590Z,66.70
2023-05-23T18:30:36.745Z,69.51
2023-05-23T18:33:06.202Z,71.17
2023-05-23T18:35:36.991Z,71.78
2023-05-23T18:38:06.166Z,69.63
2023-05-23T18:40:34.909Z,69.42
2023-05-23T18:43:04.127Z,70.87
2023-05-23T18:45:33.199Z,69.78
2023-05-23T18:48:02.501Z,70.89
2023-05-23T18:50:31.694Z,70.63
2023-05-23T18:53:02.475Z,71.20
2023-05-23T18:55:30.910Z,73.21
2023-05-23T18:58:00.642Z,73.13
2023-05-23T19:00:29.716Z,72.72
2023-05-23T19:02:58.734Z,72.64
2023-05-23T19:05:29.480Z,72.48
2023-05-23T19:07:58.312Z,73.88
2023-05-23T19:10:28.825Z,72.92
2023-05-23T19:12:57.859Z,72.50
2023-05-23T19:15:26.858Z,73.71
2023-05-23T19:17:55.991Z,74.17
2023-05-23T19:20:25.105Z,75.91
2023-05-23T19:22:53.955Z,76.27
2023-05-23T19:25:23.373Z,76.96
2023-05-23T19:27:53.998Z,76.14
2023-05-23T19:30:23.944Z,76.98
2023-05-23T19:32:53.230Z,78.22
2023-05-23T19:35:22.626Z,78.67
2023-05-23T19:37:51.385Z,78.86
2023-05-23T19:40:21.713Z,80.03
2023-05-23T19:42:50.721Z,80.40
2023-05-23T19:45:21.400Z,82.36
2023-05-23T19:47:50.814Z,82.20
2023-05-23T19:50:22.032Z,81.56
2023-05-23T19:52:50.724Z,83.93
2023-05-23T19:55:19.672Z,83.88
2023-05-23T19:57:48.907Z,83.88
2023-05-23T20:00:18.550Z,85.27
2023-05-23T20:02:49.313Z,86.41
2023-05-23T20:05:18.552Z,84.96
2023-05-23T20:07:47.335Z,84.73
2023-05-23T20:10:16.604Z,85.58
2023-05-23T20:12:45.585Z,87.35
2023-05-23T20:15:15.984Z,86.25
2023-05-23T20:17:48.434Z,86.33
2023-05-23T20:20:17.475Z,86.13
2023-05-23T20:22:46.120Z,86.45
2023-05-23T20:25:15.240Z,87.82
2023-05-23T20:27:44.279Z,87.85
2023-05-23T20:30:14.644Z,87.10
2023-05-23T20:32:45.594Z,87.86
2023-05-23T20:35:16.105Z,88.90
2023-05-23T20:37:44.657Z,88.01
2023-05-23T20:40:14.388Z,89.06
2023-05-23T20:42:45.270Z,89.34
2023-05-23T20:45:15.568Z,90.23
2023-05-23T20:47:44.514Z,91.13
2023-05-23T20:50:15.320Z,90.91
2023-05-23T20:52:44.061Z,92.25
2023-05-23T20:55:14.325Z,92.76
2023-05-23T20:57:43.392Z,92.85
2023-05-23T21:00:14.487Z,93.53
2023-05-23T21:02:44.061Z,93.07
2023-05-23T21:05:13.297Z,95.12
2023-05-23T21:07:43.437Z,94.42
2023-05-23T21:10:12.926Z,94.32
2023-05-23T21:12:49.315Z,95.95
2023-05-23T21:15:18.738Z,95.47
2023-05-23T21:17:47.775Z,96.97
2023-05-23T21:20:17.296Z,97.89
2023-05-23T21:22:47.395Z,99.02
2023-05-23T21:25:16.523Z,99.27
2023-05-23T21:27:45.762Z,100.00
2023-05-23T21:30:16.098Z,100.00
2023-05-23T21:32:44.904Z,99.78
2023-05-23T21:35:14.007Z,100.00
2023-05-23T21:37:42.586Z,100.00
2023-05-23T21:40:13.870Z,100.00
2023-05-23T21:42:43.006Z,100.00
2023-05-23T21:45:12.623Z,100.00
2023-05-23T21:47:41.675Z,100.00
2023-05-23T21:50:12.133Z,100.00
2023-05-23T21:52:40.828Z,100.00
2023-05-23T21:55:09.978Z,100.00
2023-05-23T21:57:40.547Z,100.00
2023-05-23T22:00:12.846Z,100.00
2023-05-23T22:02:44.425Z,100.00
2023-05-23T22:05:13.765Z,100.00
2023-05-23T22:07:42.542Z,100.00
2023-05-23T22:10:12.083Z,100.00
2023-05-23T22:12:42.559Z,100.00
2023-05-23T22:15:13.344Z,100.00
2023-05-23T22:17:43.864Z,100.00
2023-05-23T22:20:14.853Z,100.00
2023-05-23T22:22:43.567Z,100.00
2023-05-23T22:25:12.695Z,100.00
2023-05-23T22:27:43.152Z,100.00
2023-05-23T22:30:13.067Z,100.00
2023-05-23T22:32:42.179Z,100.00
2023-05-23T22:35:11.530Z,100.00
2023-05-23T22:37:40.056Z,100.00
2023-05-23T22:40:11.250Z,100.00
2023-05-23T22:42:40.739Z,100.00
2023-05-23T22:45:12.147Z,100.00
2023-05-23T22:47:41.806Z,100.00
2023-05-23T22:50:11.995Z,100.00
2023-05-23T22:52:40.610Z,100.00
2023-05-23T22:55:10.364Z,100.00
2023-05-23T22:57:39.333Z,100.00
2023-05-23T23:00:11.950Z,100.00
2023-05-23T23:02:41.050Z,100.00
2023-05-23T23:05:12.320Z,100.00
2023-05-23T23:07:40.977Z,100.00
2023-05-23T23:10:11.051Z,100.00
2023-05-23T23:12:40.090Z,100.00
2023-05-23T23:15:11.357Z,100.00
2023-05-23T23:17:40.430Z,100.00
2023-05-23T23:20:12.644Z,100.00
2023-05-23T23:22:41.589Z,100.00
2023-05-23T23:25:12.266Z,100.00
2023-05-23T23:27:41.683Z,100.00
2023-05-23T23:30:12.985Z,100.00
2023-05-23T23:32:42.161Z,100.00
2023-05-23T23:35:11.423Z,100.00
2023-05-23T23:37:40.475Z,100.00
2023-05-23T23:40:10.864Z,100.00
2023-05-23T23:42:40.008Z,100.00
2023-05-23T23:45:09.956Z,100.00
2023-05-23T23:47:40.462Z,100.00
2023-05-23T23:50:10.351Z,100.00
2023-05-23T23:52:39.060Z,100.00
2023-05-23T23:55:08.798Z,100.00
2023-05-23T23:57:37.887Z,100.00
